| time (UTC) | temp C | wind direction | speed KPH | gust KPH | rain 1hr cm | rain 24hr cm | rain mn cm | humidity % | barometer mb |
| 20260505114556 | 10 | 0 | 0.0 | 0.0 | 0.00 | 0.00 | 0.00 | 83 | 1015.7 |
| 20260505113105 | 8 | 0 | 0.0 | 1.6 | 0.00 | 0.00 | 0.00 | 86 | 1015.7 |
| 20260505111553 | 7 | 0 | 0.0 | 1.6 | 0.00 | 0.00 | 0.00 | 88 | 1015.7 |
| 20260505101559 | 7 | 0 | 0.0 | 0.0 | 0.00 | 0.00 | 0.00 | 87 | 1015.4 |
| 20260505100057 | 7 | 312 | 0.0 | 0.0 | 0.00 | 0.00 | 0.00 | 87 | 1015.5 |
| 20260505094607 | 7 | 0 | 0.0 | 0.0 | 0.00 | 0.00 | 0.00 | 86 | 1015.5 |
| 20260505093100 | 7 | 0 | 0.0 | 3.2 | 0.00 | 0.00 | 0.00 | 86 | 1015.4 |
| 20260505091604 | 7 | 0 | 0.0 | 0.0 | 0.00 | 0.00 | 0.00 | 85 | 1015.3 |
| 20260505090105 | 8 | 0 | 0.0 | 4.8 | 0.00 | 0.00 | 0.00 | 84 | 1015.2 |
| 20260505084559 | 8 | 0 | 0.0 | 1.6 | 0.00 | 0.00 | 0.00 | 84 | 1014.9 |
| 20260505083101 | 7 | 243 | 0.0 | 1.6 | 0.00 | 0.00 | 0.00 | 85 | 1014.5 |
| 20260505081600 | 8 | 0 | 0.0 | 3.2 | 0.00 | 0.00 | 0.00 | 83 | 1014.6 |
| 20260505080057 | 8 | 276 | 1.6 | 4.8 | 0.00 | 0.00 | 0.00 | 82 | 1014.5 |
| 20260505074557 | 8 | 324 | 0.0 | 4.8 | 0.00 | 0.00 | 0.00 | 81 | 1014.3 |
| 20260505073058 | 8 | 0 | 1.6 | 8.0 | 0.00 | 0.00 | 0.00 | 82 | 1014.2 |
| 20260505071557 | 9 | 122 | 0.0 | 1.6 | 0.00 | 0.00 | 0.00 | 79 | 1014.1 |
| 20260505070059 | 9 | 305 | 1.6 | 4.8 | 0.00 | 0.00 | 0.00 | 79 | 1013.9 |
| 20260505064557 | 10 | 279 | 0.0 | 1.6 | 0.00 | 0.00 | 0.00 | 77 | 1014.1 |
| 20260505063100 | 10 | 304 | 1.6 | 3.2 | 0.00 | 0.00 | 0.00 | 76 | 1014.2 |
| 20260505061559 | 10 | 0 | 0.0 | 3.2 | 0.00 | 0.00 | 0.00 | 76 | 1014.2 |
| 20260505060104 | 10 | 288 | 1.6 | 4.8 | 0.00 | 0.00 | 0.00 | 75 | 1014.3 |
| 20260505054559 | 11 | 313 | 3.2 | 4.8 | 0.00 | 0.00 | 0.00 | 73 | 1014.3 |
| 20260505053056 | 11 | 284 | 0.0 | 3.2 | 0.00 | 0.00 | 0.00 | 71 | 1014.3 |
| 20260505051556 | 10 | 288 | 0.0 | 3.2 | 0.00 | 0.00 | 0.00 | 77 | 1014.3 |
| 20260505041554 | 11 | 0 | 0.0 | 1.6 | 0.00 | 0.00 | 0.00 | 73 | 1014.2 |
| 20260505040103 | 11 | 313 | 0.0 | 1.6 | 0.00 | 0.00 | 0.00 | 74 | 1014.3 |
| 20260505034554 | 11 | 0 | 0.0 | 1.6 | 0.00 | 0.00 | 0.00 | 73 | 1014.6 |
| 20260505033056 | 12 | 313 | 0.0 | 1.6 | 0.00 | 0.00 | 0.00 | 72 | 1014.5 |
| 20260505031602 | 12 | 320 | 0.0 | 0.0 | 0.00 | 0.00 | 0.00 | 70 | 1014.7 |
| 20260505024558 | 13 | 308 | 0.0 | 1.6 | 0.00 | 0.00 | 0.00 | 67 | 1014.7 |
| 20260505023058 | 13 | 0 | 0.0 | 3.2 | 0.00 | 0.00 | 0.00 | 65 | 1014.7 |
| 20260505021557 | 14 | 0 | 0.0 | 1.6 | 0.00 | 0.00 | 0.00 | 63 | 1014.5 |
| 20260505020104 | 15 | 321 | 0.0 | 3.2 | 0.00 | 0.00 | 0.00 | 61 | 1014.5 |
| 20260505014605 | 15 | 323 | 0.0 | 1.6 | 0.00 | 0.00 | 0.00 | 59 | 1014.4 |
| 20260505013057 | 16 | 319 | 0.0 | 3.2 | 0.00 | 0.00 | 0.00 | 57 | 1014.2 |
| 20260505011553 | 17 | 294 | 0.0 | 3.2 | 0.00 | 0.00 | 0.00 | 52 | 1014.1 |
| 20260505010057 | 18 | 0 | 0.0 | 1.6 | 0.00 | 0.00 | 0.00 | 44 | 1013.9 |
| 20260505004558 | 19 | 0 | 0.0 | 1.6 | 0.00 | 0.00 | 0.00 | 43 | 1013.8 |
| 20260505003055 | 20 | 113 | 0.0 | 3.2 | 0.00 | 0.00 | 0.00 | 41 | 1013.6 |
| 20260505001554 | 21 | 149 | 1.6 | 6.4 | 0.00 | 0.00 | 0.00 | 40 | 1013.4 |
| 20260505000057 | 21 | 236 | 0.0 | 6.4 | 0.00 | 0.00 | 0.00 | 38 | 1013.4 |
| 20260504234555 | 22 | 213 | 3.2 | 14.5 | 0.00 | 0.00 | 0.00 | 37 | 1013.2 |
| 20260504233056 | 23 | 141 | 4.8 | 11.3 | 0.00 | 0.00 | 0.00 | 35 | 1013.1 |
| 20260504231558 | 23 | 149 | 6.4 | 17.7 | 0.00 | 0.00 | 0.00 | 34 | 1012.9 |
| 20260504230055 | 23 | 220 | 6.4 | 16.1 | 0.00 | 0.00 | 0.00 | 34 | 1013.0 |
| 20260504224554 | 24 | 114 | 3.2 | 14.5 | 0.00 | 0.00 | 0.00 | 32 | 1013.0 |
| 20260504223055 | 24 | 215 | 4.8 | 17.7 | 0.00 | 0.00 | 0.00 | 32 | 1012.9 |
| 20260504221553 | 24 | 190 | 6.4 | 20.9 | 0.00 | 0.00 | 0.00 | 32 | 1012.8 |
| 20260504220054 | 25 | 185 | 6.4 | 14.5 | 0.00 | 0.00 | 0.00 | 32 | 1012.9 |
| 20260504214604 | 25 | 125 | 9.7 | 19.3 | 0.00 | 0.00 | 0.00 | 33 | 1012.9 |
| 20260504213056 | 25 | 263 | 4.8 | 20.9 | 0.00 | 0.00 | 0.00 | 33 | 1012.9 |
| 20260504211556 | 24 | 217 | 11.3 | 20.9 | 0.00 | 0.00 | 0.00 | 35 | 1013.0 |
| 20260504210104 | 25 | 161 | 6.4 | 14.5 | 0.00 | 0.00 | 0.00 | 34 | 1013.1 |
| 20260504204611 | 24 | 121 | 8.0 | 25.7 | 0.00 | 0.00 | 0.00 | 36 | 1013.2 |
| 20260504203134 | 25 | 187 | 3.2 | 19.3 | 0.00 | 0.00 | 0.00 | 34 | 1013.2 |
| 20260504201556 | 25 | 217 | 1.6 | 17.7 | 0.00 | 0.00 | 0.00 | 35 | 1013.4 |
| 20260504200057 | 25 | 143 | 8.0 | 17.7 | 0.00 | 0.00 | 0.00 | 34 | 1013.5 |
| 20260504194555 | 25 | 120 | 4.8 | 19.3 | 0.00 | 0.00 | 0.00 | 35 | 1013.7 |
| 20260504193052 | 25 | 157 | 4.8 | 16.1 | 0.00 | 0.00 | 0.00 | 32 | 1014.0 |
| 20260504191558 | 23 | 167 | 11.3 | 22.5 | 0.00 | 0.00 | 0.00 | 34 | 1014.2 |
| 20260504190056 | 24 | 277 | 6.4 | 19.3 | 0.00 | 0.00 | 0.00 | 34 | 1014.4 |
| 20260504184559 | 24 | 124 | 4.8 | 16.1 | 0.00 | 0.00 | 0.00 | 36 | 1014.5 |
| 20260504183103 | 24 | 198 | 8.0 | 16.1 | 0.00 | 0.00 | 0.00 | 34 | 1014.6 |
| 20260504181553 | 23 | 129 | 11.3 | 17.7 | 0.00 | 0.00 | 0.00 | 36 | 1014.9 |
| 20260504180113 | 24 | 269 | 4.8 | 11.3 | 0.00 | 0.00 | 0.00 | 35 | 1015.0 |
| 20260504174556 | 23 | 205 | 4.8 | 17.7 | 0.00 | 0.00 | 0.00 | 37 | 1015.2 |
| 20260504173107 | 22 | 159 | 11.3 | 22.5 | 0.00 | 0.00 | 0.00 | 38 | 1015.2 |
| 20260504171605 | 23 | 132 | 6.4 | 14.5 | 0.00 | 0.00 | 0.00 | 37 | 1015.2 |